createdAt,value
2017-09-01T00:14:56.861Z,11.70
2017-09-01T00:17:25.818Z,11.60
2017-09-01T00:19:54.789Z,11.50
2017-09-01T00:22:23.756Z,11.50
2017-09-01T00:24:52.724Z,11.40
2017-09-01T00:27:31.932Z,11.40
2017-09-01T00:34:30.349Z,11.40
2017-09-01T00:36:59.334Z,11.40
2017-09-01T00:39:29.070Z,11.40
2017-09-01T00:51:07.045Z,11.50
2017-09-01T00:53:36.108Z,11.40
2017-09-01T00:56:05.128Z,11.50
2017-09-01T01:03:03.337Z,11.50
2017-09-01T01:05:32.383Z,11.60
2017-09-01T01:08:11.681Z,11.50
2017-09-01T01:20:01.071Z,11.50
2017-09-01T01:27:00.479Z,11.30
2017-09-01T01:29:29.597Z,11.30
2017-09-01T01:36:27.921Z,11.30
2017-09-01T01:38:57.068Z,11.30
2017-09-01T01:50:35.537Z,11.30
2017-09-01T01:53:14.806Z,11.30
2017-09-01T01:55:43.878Z,11.20
2017-09-01T01:58:12.959Z,11.20
2017-09-01T02:00:41.985Z,11.20
2017-09-01T02:03:11.734Z,11.10
2017-09-01T02:26:36.208Z,10.90
2017-09-01T02:29:16.266Z,10.80
2017-09-01T02:31:45.532Z,10.70
2017-09-01T02:34:14.695Z,10.80
2017-09-01T02:36:43.787Z,10.80
2017-09-01T02:39:12.918Z,10.80
2017-09-01T02:41:41.989Z,10.70
2017-09-01T02:48:40.617Z,10.70
2017-09-01T02:51:09.700Z,10.80
2017-09-01T02:53:49.124Z,10.60
2017-09-01T02:56:18.217Z,10.50
2017-09-01T02:58:47.313Z,10.40
2017-09-01T03:01:16.333Z,10.40
2017-09-01T03:03:55.648Z,10.30
2017-09-01T03:06:34.871Z,10.20
2017-09-01T03:22:32.061Z,10.10
2017-09-01T03:25:01.127Z,10.00
2017-09-01T03:27:40.489Z,10.10
2017-09-01T03:30:09.572Z,10.10
2017-09-01T03:32:38.663Z,10.20
2017-09-01T03:35:07.772Z,10.20
2017-09-01T03:37:36.839Z,10.20
2017-09-01T03:40:05.952Z,10.20
2017-09-01T03:42:45.310Z,10.10
2017-09-01T03:49:53.928Z,10.20
2017-09-01T03:57:02.667Z,10.20
2017-09-01T04:04:01.358Z,10.30
2017-09-01T04:06:30.375Z,10.30
2017-09-01T04:08:59.445Z,10.30
2017-09-01T04:11:28.543Z,10.20
2017-09-01T04:14:08.202Z,10.30
2017-09-01T04:21:16.743Z,10.20
2017-09-01T04:23:45.828Z,10.10
2017-09-01T04:35:13.303Z,10.00
2017-09-01T04:42:11.953Z,10.00
2017-09-01T04:44:41.171Z,10.00
2017-09-01T04:47:10.144Z,10.00
2017-09-01T04:49:39.935Z,10.00
2017-09-01T04:52:09.269Z,9.90
2017-09-01T04:54:38.268Z,10.00
2017-09-01T05:01:36.572Z,10.00
2017-09-01T05:08:34.697Z,9.90
2017-09-01T05:20:04.647Z,9.90
2017-09-01T05:22:33.707Z,9.90
2017-09-01T05:25:02.835Z,10.00
2017-09-01T05:27:33.242Z,10.10
2017-09-01T05:30:03.122Z,10.20
2017-09-01T05:32:33.759Z,10.20
2017-09-01T05:35:02.845Z,10.20
2017-09-01T05:37:32.045Z,10.30
2017-09-01T05:44:30.546Z,10.50
2017-09-01T05:47:00.361Z,11.00
2017-09-01T05:57:30.964Z,11.30
2017-09-01T06:00:00.019Z,11.20
2017-09-01T06:02:29.800Z,11.30
2017-09-01T06:04:58.869Z,11.20
2017-09-01T06:07:27.903Z,11.50
2017-09-01T06:09:56.883Z,11.80
2017-09-01T06:12:26.677Z,12.10
2017-09-01T06:14:56.449Z,12.30
2017-09-01T06:17:25.444Z,12.20
2017-09-01T06:19:54.442Z,12.40
2017-09-01T06:22:24.517Z,12.40
2017-09-01T06:24:53.572Z,12.50
2017-09-01T06:27:22.573Z,12.60
2017-09-01T06:29:51.659Z,12.60
2017-09-01T06:32:20.757Z,12.60
2017-09-01T06:34:50.162Z,12.80
2017-09-01T06:37:19.194Z,12.80
2017-09-01T06:39:48.510Z,12.90
2017-09-01T06:42:17.539Z,13.00
2017-09-01T06:49:16.004Z,13.10
2017-09-01T06:51:44.980Z,13.00
2017-09-01T06:54:14.031Z,12.90
2017-09-01T06:56:43.100Z,12.70
2017-09-01T06:59:12.333Z,12.90
2017-09-01T07:01:41.592Z,12.90
2017-09-01T07:04:11.266Z,12.80
2017-09-01T07:06:40.388Z,12.90
2017-09-01T07:09:09.375Z,13.10
2017-09-01T07:11:38.526Z,13.30
2017-09-01T07:14:07.586Z,13.60
2017-09-01T07:16:36.898Z,13.70
2017-09-01T07:19:05.949Z,13.90
2017-09-01T07:21:34.941Z,14.00
2017-09-01T07:24:04.777Z,13.90
2017-09-01T07:31:03.153Z,13.90
2017-09-01T07:38:03.071Z,14.40
2017-09-01T07:40:32.175Z,14.30
2017-09-01T07:43:01.789Z,14.80
2017-09-01T07:45:31.689Z,15.10
2017-09-01T07:48:01.013Z,15.10
2017-09-01T07:50:31.000Z,15.10
2017-09-01T07:52:59.977Z,15.10
2017-09-01T07:55:29.759Z,15.00
2017-09-01T07:57:58.810Z,14.90
2017-09-01T08:00:27.885Z,15.20
2017-09-01T08:02:56.928Z,15.40
2017-09-01T08:05:25.968Z,15.80
2017-09-01T08:07:55.113Z,16.00
2017-09-01T08:10:25.184Z,16.50
2017-09-01T08:12:54.241Z,16.40
2017-09-01T08:15:23.208Z,16.90
2017-09-01T08:22:21.570Z,17.30
2017-09-01T08:29:20.183Z,18.00
2017-09-01T08:31:49.240Z,18.30
2017-09-01T08:34:18.251Z,18.30
2017-09-01T08:36:47.466Z,18.10
2017-09-01T08:39:16.470Z,17.90
2017-09-01T08:41:45.494Z,17.60
2017-09-01T08:44:15.832Z,17.60
2017-09-01T08:46:48.588Z,17.60
2017-09-01T08:49:18.003Z,17.50
2017-09-01T08:51:47.093Z,17.60
2017-09-01T08:54:16.462Z,17.60
2017-09-01T08:56:45.446Z,17.60
2017-09-01T08:59:14.447Z,17.40
2017-09-01T09:01:43.522Z,17.20
2017-09-01T09:04:12.608Z,17.00
2017-09-01T09:06:41.661Z,16.90
2017-09-01T09:12:42.939Z,17.60
2017-09-01T09:15:12.853Z,17.60
2017-09-01T09:17:42.738Z,18.00
2017-09-01T09:20:11.836Z,17.90
2017-09-01T09:22:40.981Z,18.40
2017-09-01T09:25:10.117Z,18.30
2017-09-01T09:27:40.013Z,18.50
2017-09-01T09:30:09.313Z,18.60
2017-09-01T09:32:38.561Z,19.00
2017-09-01T09:35:08.663Z,19.40
2017-09-01T09:37:38.882Z,19.90
2017-09-01T09:40:09.056Z,19.80
2017-09-01T09:42:38.366Z,20.40
2017-09-01T09:49:37.067Z,20.70
2017-09-01T09:52:06.846Z,21.90
2017-09-01T09:54:35.977Z,21.80
2017-09-01T09:57:05.037Z,21.80
2017-09-01T09:59:34.086Z,21.70
2017-09-01T10:02:14.122Z,23.10
2017-09-01T10:04:43.342Z,23.00
2017-09-01T10:07:12.334Z,23.30
2017-09-01T10:09:41.402Z,23.80
2017-09-01T10:12:10.451Z,23.90
2017-09-01T10:14:39.460Z,23.10
2017-09-01T10:17:08.554Z,22.90
2017-09-01T10:19:37.630Z,22.80
2017-09-01T10:22:07.792Z,21.30
2017-09-01T10:27:12.914Z,21.40
2017-09-01T10:29:45.588Z,20.00
2017-09-01T10:32:15.053Z,19.90
2017-09-01T10:34:44.868Z,19.70
2017-09-01T10:37:14.452Z,19.50
2017-09-01T10:39:43.672Z,19.70
2017-09-01T10:42:27.550Z,19.80
2017-09-01T10:44:56.728Z,19.80
2017-09-01T10:47:36.143Z,19.70
2017-09-01T10:50:17.115Z,20.20
2017-09-01T10:54:58.015Z,20.10
2017-09-01T10:58:40.036Z,20.30
2017-09-01T11:01:09.081Z,20.50
2017-09-01T11:03:38.947Z,21.00
2017-09-01T11:06:09.631Z,21.20
2017-09-01T11:08:38.646Z,21.20
2017-09-01T11:11:07.796Z,21.60
2017-09-01T11:13:36.908Z,21.60
2017-09-01T11:16:33.604Z,21.40
2017-09-01T11:19:07.403Z,21.10
2017-09-01T11:23:54.823Z,21.00
2017-09-01T11:26:27.717Z,20.00
2017-09-01T11:28:56.821Z,19.60
2017-09-01T11:31:25.869Z,19.30
2017-09-01T11:33:55.719Z,19.10
2017-09-01T11:36:34.367Z,19.00
2017-09-01T11:39:03.811Z,18.80
2017-09-01T11:41:32.999Z,18.80
2017-09-01T11:44:02.911Z,19.00
2017-09-01T11:46:37.529Z,19.30
2017-09-01T11:49:07.433Z,20.60
2017-09-01T11:51:36.773Z,20.50
2017-09-01T11:54:06.658Z,20.00
2017-09-01T11:56:35.705Z,19.90
2017-09-01T11:59:04.698Z,19.80
2017-09-01T12:05:05.139Z,20.00
2017-09-01T12:07:35.151Z,19.60
2017-09-01T12:10:04.357Z,19.50
2017-09-01T12:12:33.577Z,19.70
2017-09-01T12:15:16.998Z,19.40
2017-09-01T12:17:46.223Z,19.40
2017-09-01T12:20:15.308Z,19.20
2017-09-01T12:22:45.206Z,19.50
2017-09-01T12:25:15.058Z,19.50
2017-09-01T12:27:44.861Z,19.80
2017-09-01T12:30:13.924Z,19.70
2017-09-01T12:32:43.074Z,19.90
2017-09-01T12:35:13.365Z,19.30
2017-09-01T12:37:43.899Z,19.30
2017-09-01T12:40:13.271Z,19.10
2017-09-01T12:42:43.996Z,19.70
2017-09-01T12:45:13.925Z,20.40
2017-09-01T12:47:43.024Z,20.40
2017-09-01T12:50:26.747Z,20.80
2017-09-01T12:52:56.577Z,21.10
2017-09-01T12:55:28.285Z,21.10
2017-09-01T12:57:57.349Z,21.10
2017-09-01T13:00:26.390Z,21.10
2017-09-01T13:02:56.252Z,20.70
2017-09-01T13:05:26.020Z,20.80
2017-09-01T13:07:55.493Z,20.70
2017-09-01T13:10:24.579Z,21.00
2017-09-01T13:12:54.501Z,21.00
2017-09-01T13:15:23.562Z,21.00
2017-09-01T13:17:52.695Z,21.20
2017-09-01T13:20:22.511Z,20.60
2017-09-01T13:22:52.367Z,21.00
2017-09-01T13:25:21.951Z,21.00
2017-09-01T13:27:51.470Z,21.40
2017-09-01T13:30:23.228Z,20.80
2017-09-01T13:32:53.997Z,20.70
2017-09-01T13:39:53.977Z,20.40
2017-09-01T13:42:23.794Z,20.50
2017-09-01T13:44:57.780Z,20.30
2017-09-01T13:47:27.417Z,20.30
2017-09-01T13:49:56.752Z,20.50
2017-09-01T13:52:25.909Z,20.70
2017-09-01T13:54:55.121Z,20.60
2017-09-01T13:57:24.369Z,20.60
2017-09-01T13:59:53.565Z,20.20
2017-09-01T14:02:22.689Z,20.30
2017-09-01T14:04:52.142Z,19.90
2017-09-01T14:07:26.057Z,20.20
2017-09-01T14:09:55.158Z,20.60
2017-09-01T14:12:24.381Z,20.40
2017-09-01T14:14:53.498Z,20.30
2017-09-01T14:17:22.691Z,20.20
2017-09-01T14:24:23.626Z,20.10
2017-09-01T14:26:53.394Z,20.00
2017-09-01T14:29:26.528Z,20.00
2017-09-01T14:31:56.682Z,20.00
2017-09-01T14:34:26.940Z,19.60
2017-09-01T14:36:56.321Z,19.60
2017-09-01T14:39:25.406Z,19.60
2017-09-01T14:41:55.324Z,19.70
2017-09-01T14:44:25.501Z,19.60
2017-09-01T14:46:54.924Z,19.70
2017-09-01T14:49:25.281Z,19.70
2017-09-01T14:51:54.376Z,19.60
2017-09-01T14:54:24.324Z,19.90
2017-09-01T14:56:53.799Z,19.90
2017-09-01T14:59:24.378Z,19.60
2017-09-01T15:01:53.775Z,19.00
2017-09-01T15:04:23.252Z,18.60
2017-09-01T15:06:53.290Z,18.40
2017-09-01T15:09:22.455Z,18.30
2017-09-01T15:11:51.470Z,18.50
2017-09-01T15:14:20.583Z,18.60
2017-09-01T15:16:50.395Z,18.80
2017-09-01T15:19:19.499Z,18.70
2017-09-01T15:21:48.725Z,18.90
2017-09-01T15:24:17.821Z,18.90
2017-09-01T15:26:46.868Z,18.70
2017-09-01T15:29:16.761Z,18.50
2017-09-01T15:31:45.920Z,18.40
2017-09-01T15:34:16.852Z,18.30
2017-09-01T15:36:45.915Z,18.50
2017-09-01T15:39:15.069Z,18.70
2017-09-01T15:41:44.862Z,18.70
2017-09-01T15:44:14.681Z,18.60
2017-09-01T15:46:44.674Z,18.20
2017-09-01T15:49:14.214Z,18.20
2017-09-01T15:51:44.156Z,18.10
2017-09-01T15:54:14.042Z,18.00
2017-09-01T15:56:44.179Z,18.10
2017-09-01T15:59:13.478Z,18.10
2017-09-01T16:01:43.313Z,18.00
2017-09-01T16:04:12.424Z,18.00
2017-09-01T16:06:41.540Z,17.90
2017-09-01T16:09:11.670Z,17.90
2017-09-01T16:11:42.333Z,17.80
2017-09-01T16:14:12.762Z,17.80
2017-09-01T16:16:42.588Z,17.80
2017-09-01T16:19:11.653Z,17.70
2017-09-01T16:21:41.761Z,17.60
2017-09-01T16:24:11.746Z,17.60
2017-09-01T16:26:41.213Z,17.50
2017-09-01T16:29:10.266Z,17.50
2017-09-01T16:31:39.846Z,17.50
2017-09-01T16:34:08.943Z,17.50
2017-09-01T16:36:39.283Z,17.40
2017-09-01T16:39:08.384Z,17.30
2017-09-01T16:41:37.442Z,17.30
2017-09-01T16:44:06.537Z,17.30
2017-09-01T16:46:36.631Z,17.10
2017-09-01T16:49:06.090Z,17.10
2017-09-01T16:51:35.223Z,17.10
2017-09-01T16:54:04.369Z,17.00
2017-09-01T16:56:34.324Z,17.00
2017-09-01T16:59:05.090Z,16.80
2017-09-01T17:01:35.026Z,16.70
2017-09-01T17:04:05.424Z,16.60
2017-09-01T17:06:34.943Z,16.60
2017-09-01T17:11:52.936Z,16.50
2017-09-01T17:14:25.974Z,16.40
2017-09-01T17:16:56.867Z,16.30
2017-09-01T17:19:32.839Z,16.30
2017-09-01T17:22:04.375Z,16.10
2017-09-01T17:24:33.467Z,16.10
2017-09-01T17:27:04.518Z,16.10
2017-09-01T17:29:33.688Z,16.00
2017-09-01T17:32:04.093Z,15.80
2017-09-01T17:34:39.959Z,15.80
2017-09-01T17:37:09.232Z,15.60
2017-09-01T17:39:38.378Z,15.50
2017-09-01T17:42:10.402Z,15.50
2017-09-01T17:44:45.898Z,15.40
2017-09-01T17:47:17.862Z,15.30
2017-09-01T17:49:56.352Z,15.30
2017-09-01T17:52:27.562Z,15.30
2017-09-01T17:54:56.862Z,15.20
2017-09-01T17:57:26.206Z,15.20
2017-09-01T17:59:55.274Z,15.10
2017-09-01T18:02:24.513Z,14.90
2017-09-01T18:04:53.825Z,14.60
2017-09-01T18:07:25.534Z,14.30
2017-09-01T18:10:02.400Z,14.20
2017-09-01T18:12:33.909Z,14.20
2017-09-01T18:15:03.115Z,14.10
2017-09-01T18:17:34.104Z,14.10
2017-09-01T18:20:04.278Z,14.00
2017-09-01T18:22:36.403Z,13.70
2017-09-01T18:25:05.543Z,13.70
2017-09-01T18:27:36.318Z,13.40
2017-09-01T18:30:05.812Z,13.40
2017-09-01T18:32:37.263Z,13.40
2017-09-01T18:35:07.574Z,13.40
2017-09-01T18:37:39.541Z,13.40
2017-09-01T18:40:09.335Z,13.30
2017-09-01T18:42:39.429Z,13.30
2017-09-01T18:45:14.715Z,13.20
2017-09-01T18:47:45.346Z,13.10
2017-09-01T18:50:21.380Z,13.10
2017-09-01T18:52:53.572Z,13.10
2017-09-01T18:55:23.672Z,13.00
2017-09-01T18:57:53.225Z,13.00
2017-09-01T19:00:22.620Z,12.90
2017-09-01T19:02:53.746Z,12.80
2017-09-01T19:05:24.167Z,12.70
2017-09-01T19:07:55.115Z,12.60
2017-09-01T19:10:26.069Z,12.50
2017-09-01T19:12:56.065Z,12.50
2017-09-01T19:15:25.790Z,12.50
2017-09-01T19:17:56.698Z,12.50
2017-09-01T19:20:26.088Z,12.50
2017-09-01T19:22:56.770Z,12.20
2017-09-01T19:25:25.901Z,12.20
2017-09-01T19:27:56.740Z,12.10
2017-09-01T19:30:27.402Z,12.20
2017-09-01T19:32:58.298Z,12.20
2017-09-01T19:35:27.433Z,12.30
2017-09-01T19:37:58.664Z,12.30
2017-09-01T19:40:30.096Z,12.30
2017-09-01T19:43:00.066Z,12.40
2017-09-01T19:45:29.168Z,12.40
2017-09-01T19:47:59.508Z,12.30
2017-09-01T19:50:28.640Z,12.30
2017-09-01T19:52:59.434Z,12.30
2017-09-01T19:55:28.539Z,12.20
2017-09-01T19:57:58.593Z,12.20
2017-09-01T20:00:28.910Z,12.20
2017-09-01T20:02:59.776Z,12.10
2017-09-01T20:05:30.066Z,12.10
2017-09-01T20:08:02.415Z,12.10
2017-09-01T20:10:32.461Z,12.10
2017-09-01T20:13:03.203Z,12.00
2017-09-01T20:15:34.159Z,12.00
2017-09-01T20:18:04.515Z,12.00
2017-09-01T20:20:33.682Z,12.00
2017-09-01T20:23:05.858Z,11.90
2017-09-01T20:25:35.216Z,11.80
2017-09-01T20:28:06.039Z,11.70
2017-09-01T20:30:36.503Z,11.60
2017-09-01T20:33:06.488Z,11.50
2017-09-01T20:35:37.357Z,11.50
2017-09-01T20:38:09.096Z,11.60
2017-09-01T20:40:41.664Z,11.60
2017-09-01T20:43:10.678Z,11.50
2017-09-01T20:45:39.834Z,11.60
2017-09-01T20:48:09.200Z,11.60
2017-09-01T20:50:38.305Z,11.60
2017-09-01T20:53:07.345Z,11.70
2017-09-01T20:55:36.456Z,11.70
2017-09-01T20:58:08.136Z,11.70
2017-09-01T21:00:37.599Z,11.60
2017-09-01T21:03:08.131Z,11.50
2017-09-01T21:05:38.985Z,11.50
2017-09-01T21:08:08.883Z,11.40
2017-09-01T21:10:38.187Z,11.30
2017-09-01T21:13:08.181Z,11.40
2017-09-01T21:15:38.210Z,11.30
2017-09-01T21:18:20.171Z,11.30
2017-09-01T21:20:49.944Z,11.30
2017-09-01T21:23:19.836Z,11.20
2017-09-01T21:25:49.747Z,11.10
2017-09-01T21:28:19.120Z,11.20
2017-09-01T21:30:49.058Z,11.10
2017-09-01T21:33:18.129Z,11.00
2017-09-01T21:35:47.711Z,10.90
2017-09-01T21:38:16.757Z,10.80
2017-09-01T21:40:45.863Z,10.80
2017-09-01T21:43:15.125Z,10.80
2017-09-01T21:45:44.145Z,10.80
2017-09-01T21:48:15.056Z,10.80
2017-09-01T21:50:44.285Z,10.80
2017-09-01T21:53:14.730Z,10.80
2017-09-01T21:55:43.795Z,10.70
2017-09-01T21:58:12.845Z,10.80
2017-09-01T22:00:50.606Z,10.70
2017-09-01T22:03:20.493Z,10.50
2017-09-01T22:05:49.557Z,10.40
2017-09-01T22:08:18.667Z,10.50
2017-09-01T22:10:47.754Z,10.50
2017-09-01T22:14:19.462Z,10.40
2017-09-01T22:16:48.545Z,10.40
2017-09-01T22:19:21.819Z,10.40
2017-09-01T22:21:50.901Z,10.40
2017-09-01T22:24:20.273Z,10.60
2017-09-01T22:26:49.705Z,10.60
2017-09-01T22:29:18.695Z,10.70
2017-09-01T22:34:23.035Z,10.60
2017-09-01T22:36:52.020Z,10.60
2017-09-01T22:39:21.042Z,10.50
2017-09-01T22:41:50.061Z,10.40
2017-09-01T22:44:19.060Z,10.40
2017-09-01T22:46:48.807Z,10.30
2017-09-01T22:49:17.802Z,10.20
2017-09-01T22:51:46.750Z,10.30
2017-09-01T22:54:24.506Z,10.30
2017-09-01T22:56:53.541Z,10.30
2017-09-01T22:59:22.477Z,10.30
2017-09-01T23:01:51.508Z,10.30
2017-09-01T23:04:20.455Z,10.30
2017-09-01T23:06:49.408Z,10.20
2017-09-01T23:09:18.450Z,10.20
2017-09-01T23:11:47.540Z,10.10
2017-09-01T23:14:16.494Z,10.20
2017-09-01T23:16:45.487Z,10.20
2017-09-01T23:19:14.495Z,10.20
2017-09-01T23:21:43.602Z,10.10
2017-09-01T23:24:12.598Z,10.20
2017-09-01T23:26:41.552Z,10.20
2017-09-01T23:29:10.530Z,10.10
2017-09-01T23:31:39.540Z,10.10
2017-09-01T23:34:08.510Z,10.10
2017-09-01T23:36:38.290Z,10.00
2017-09-01T23:39:07.307Z,9.90
2017-09-01T23:41:37.030Z,10.10
2017-09-01T23:44:05.985Z,10.00
2017-09-01T23:46:34.967Z,10.10
2017-09-01T23:49:04.706Z,10.20
2017-09-01T23:51:33.718Z,10.10
2017-09-01T23:54:02.677Z,10.10
2017-09-01T23:56:31.600Z,10.10
2017-09-01T23:59:00.561Z,10.10
